Tachibana — JD2357 — position and weather

sailwx.info

Track history (hours):
 
Tides and Currents Weather Stations Pressure Air Temp Water Temp Dewpoint Dewpoint Depression Visibility Wind Speed Wind Dir Waves Ship Positions

Tachibana

Last reported at 2017-Dec-10 23:41 UTC. Time now 2017-Dec-12 10:28 UTC.
Position N 35°27' E 139°39'.

Length 36 m; draft 3.9 m.

Type: Tug. MMSI: 431000123.

Date/timePositionNaut miles runAvg speedWind from/ knotsBaromVisibWave heightAir tempDewpointWater temp
2017-Dec-10 23:41N 35°27' E 139°39'1 4.5
2017-Dec-10 23:31N 35°27' E 139°40'1 2.3
2017-Dec-10 23:00N 35°26' E 139°41'1 2.1
2017-Dec-10 22:30N 35°26' E 139°42'1 2.4
2017-Dec-10 22:00N 35°26' E 139°43'3 6.8
2017-Dec-10 21:30N 35°27' E 139°39'0 0.1
2017-Dec-10 21:00N 35°27' E 139°39'0 0.0
2017-Dec-10 20:30N 35°27' E 139°39'0 0.0
2017-Dec-10 20:00N 35°27' E 139°39'0 0.0
2017-Dec-10 19:30N 35°27' E 139°39'0 0.0
2017-Dec-10 19:00N 35°27' E 139°39'1 2.6
2017-Dec-10 18:30N 35°27' E 139°41'0 0.6
2017-Dec-10 18:00N 35°26' E 139°41'0 0.1
2017-Dec-10 17:30N 35°26' E 139°41'1 2.0
2017-Dec-10 17:00N 35°27' E 139°42'0 0.0
2017-Dec-10 16:30N 35°27' E 139°42'0 0.0
2017-Dec-10 16:00N 35°27' E 139°42'0 0.0
2017-Dec-10 15:31N 35°27' E 139°42'1 1.1
2017-Dec-10 15:00N 35°27' E 139°41'0 0.9
2017-Dec-10 14:30N 35°27' E 139°41'1 2.7
2017-Dec-10 14:00N 35°27' E 139°39'0 0.0
2017-Dec-10 13:30N 35°27' E 139°39'0 0.0
2017-Dec-10 13:00N 35°27' E 139°39'0 0.0
2017-Dec-10 12:31N 35°27' E 139°39'0 0.0
2017-Dec-10 12:00N 35°27' E 139°39'0 0.0
2017-Dec-10 11:31N 35°27' E 139°39'0 0.0
2017-Dec-10 11:00N 35°27' E 139°39'0 0.0
2017-Dec-10 10:31N 35°27' E 139°39'0 0.9
2017-Dec-10 10:01N 35°28' E 139°40'2 3.6
2017-Dec-10 09:31N 35°28' E 139°42'2 3.3
2017-Dec-10 09:00N 35°27' E 139°44'4 7.8
2017-Dec-10 08:30N 35°30' E 139°47'2 3.8
2017-Dec-10 08:01N 35°29' E 139°45'0 0.3
2017-Dec-10 07:30N 35°29' E 139°45'4 8.2
2017-Dec-10 07:01N 35°28' E 139°40'0 0.0
2017-Dec-10 06:30N 35°28' E 139°40'0 0.0
2017-Dec-10 06:01N 35°28' E 139°40'0 0.0
2017-Dec-10 05:31N 35°28' E 139°40'0 0.0
2017-Dec-10 05:00N 35°28' E 139°40'1 2.2
2017-Dec-10 04:31N 35°27' E 139°41'2 3.0
2017-Dec-10 04:01N 35°28' E 139°40'0 0.0
2017-Dec-10 03:31N 35°28' E 139°40'1 2.7
2017-Dec-10 03:01N 35°27' E 139°40'0 0.0
2017-Dec-10 02:31N 35°27' E 139°40'0 0.0
2017-Dec-10 02:01N 35°27' E 139°40'0 0.0
2017-Dec-10 01:31N 35°27' E 139°40'0 0.0
2017-Dec-10 01:01N 35°27' E 139°40'0 0.0
2017-Dec-10 00:31N 35°27' E 139°40'0 0.0
2017-Dec-10 00:01N 35°27' E 139°40'0 0.0
2017-Dec-09 23:31N 35°27' E 139°40'0 0.0
2017-Dec-09 23:01N 35°27' E 139°40'0 0.0
2017-Dec-09 22:30N 35°27' E 139°40'0 0.0
2017-Dec-09 22:01N 35°27' E 139°40'0 0.0
2017-Dec-09 21:31N 35°27' E 139°40'0 0.0
2017-Dec-09 21:01N 35°27' E 139°40'0 0.0
2017-Dec-09 20:31N 35°27' E 139°40'0 0.0
2017-Dec-09 07:14N 35°27' E 139°40'0 0.0
2017-Dec-09 07:00N 35°27' E 139°40'0 0.0
2017-Dec-09 06:30N 35°27' E 139°40'0 0.0
2017-Dec-09 06:00N 35°27' E 139°40'0 0.0
2017-Dec-09 05:30N 35°27' E 139°40'0 0.0
2017-Dec-09 05:00N 35°27' E 139°40'0 0.0
2017-Dec-09 04:30N 35°27' E 139°40'0 0.0
2017-Dec-09 04:00N 35°27' E 139°40'0 0.0
2017-Dec-09 03:30N 35°27' E 139°40'0 0.0
2017-Dec-09 03:00N 35°27' E 139°40'0 0.0
2017-Dec-09 02:30N 35°27' E 139°40'0 0.0
2017-Dec-09 02:00N 35°27' E 139°40'0 0.0
2017-Dec-09 01:30N 35°27' E 139°40'0 0.7
2017-Dec-09 01:01N 35°27' E 139°40'3 5.3
2017-Dec-09 00:30N 35°28' E 139°43'1 2.6
2017-Dec-09 00:00N 35°27' E 139°42'2 3.9
2017-Dec-08 23:30N 35°27' E 139°39'0 0.0
2017-Dec-08 23:00N 35°27' E 139°39'0 0.1
2017-Dec-08 22:31N 35°27' E 139°39'1 2.6
2017-Dec-08 22:00N 35°27' E 139°41'1 2.9
2017-Dec-08 21:30N 35°26' E 139°42'1 1.4
2017-Dec-08 21:01N 35°26' E 139°43'3 5.3
2017-Dec-08 20:31N 35°27' E 139°40'0 0.0
2017-Dec-08 20:00N 35°27' E 139°40'0 0.0
2017-Dec-08 19:30N 35°27' E 139°40'0 0.0
2017-Dec-08 19:00N 35°27' E 139°40'0 0.0
2017-Dec-08 18:31N 35°27' E 139°40'0 0.0
2017-Dec-08 18:01N 35°27' E 139°40'0 0.0
2017-Dec-08 17:30N 35°27' E 139°40'0 0.0
2017-Dec-08 17:00N 35°27' E 139°40'0 0.0
2017-Dec-08 16:30N 35°27' E 139°40'0 0.0
2017-Dec-08 16:00N 35°27' E 139°40'0 0.0
2017-Dec-08 15:31N 35°27' E 139°40'0 0.0
2017-Dec-08 15:01N 35°27' E 139°40'0 0.0
2017-Dec-08 14:30N 35°27' E 139°40'0 0.0
2017-Dec-08 14:00N 35°27' E 139°40'0 0.0
2017-Dec-08 13:30N 35°27' E 139°40'0 0.0
2017-Dec-08 13:00N 35°27' E 139°40'0 0.0
2017-Dec-08 12:31N 35°27' E 139°40'0 0.0
2017-Dec-08 12:00N 35°27' E 139°40'0 0.0
2017-Dec-08 11:30N 35°27' E 139°40'0 0.0
2017-Dec-08 11:00N 35°27' E 139°40'0 0.0
2017-Dec-08 10:31N 35°27' E 139°40'0 0.0
2017-Dec-08 10:00N 35°27' E 139°40'0 0.0
2017-Dec-08 09:30N 35°27' E 139°40'0 0.0
2017-Dec-08 09:00N 35°27' E 139°40'0 0.0
2017-Dec-08 08:30N 35°27' E 139°40'0 0.0
2017-Dec-08 08:01N 35°27' E 139°40'0 0.3
2017-Dec-08 07:31N 35°27' E 139°40'4 7.9
2017-Dec-08 07:00N 35°23' E 139°41'1 1.9
2017-Dec-08 06:30N 35°24' E 139°41'3 5.8
2017-Dec-08 06:01N 35°27' E 139°42'0 0.0
2017-Dec-08 05:30N 35°27' E 139°42'0 0.0
2017-Dec-08 05:00N 35°27' E 139°42'0 0.0
2017-Dec-08 04:31N 35°27' E 139°42'0 0.0
2017-Dec-08 04:00N 35°27' E 139°42'0 0.0
2017-Dec-08 03:31N 35°27' E 139°42'0 0.0
2017-Dec-08 03:01N 35°27' E 139°42'1 1.4
2017-Dec-08 02:30N 35°27' E 139°43'1 1.0
2017-Dec-08 02:00N 35°28' E 139°43'0 0.0
2017-Dec-08 01:30N 35°28' E 139°43'0 0.5
2017-Dec-08 01:01N 35°27' E 139°43'2 4.4
2017-Dec-08 00:30N 35°26' E 139°45'2 3.9
2017-Dec-08 00:00N 35°28' E 139°45'1 1.1
2017-Dec-07 23:31N 35°28' E 139°45'0 0.0
2017-Dec-07 23:00N 35°28' E 139°45'3 5.1
2017-Dec-07 22:30N 35°30' E 139°47'1 2.7
2017-Dec-07 22:01N 35°31' E 139°46'5 9.2
2017-Dec-07 21:30N 35°28' E 139°41'2 3.9
2017-Dec-07 21:00N 35°27' E 139°40'0 0.0
2017-Dec-07 20:31N 35°27' E 139°40'0 0.0
2017-Dec-07 07:08N 35°27' E 139°40'0 0.0
2017-Dec-07 07:00N 35°27' E 139°40'0 0.0
2017-Dec-07 06:30N 35°27' E 139°40'0 0.0
2017-Dec-07 06:01N 35°27' E 139°40'0 0.0
2017-Dec-07 05:30N 35°27' E 139°40'0 0.0
2017-Dec-07 05:00N 35°27' E 139°40'0 0.0
2017-Dec-07 04:31N 35°27' E 139°40'0 0.0
2017-Dec-07 04:01N 35°27' E 139°40'0 0.0
2017-Dec-07 03:30N 35°27' E 139°40'2 3.5
2017-Dec-07 03:01N 35°26' E 139°42'2 4.1
2017-Dec-07 02:31N 35°28' E 139°40'1 2.5
2017-Dec-07 02:01N 35°27' E 139°39'1 2.6
2017-Dec-07 01:31N 35°27' E 139°41'0 0.2
2017-Dec-07 01:01N 35°27' E 139°41'2 4.3
2017-Dec-07 00:31N 35°25' E 139°43'1 2.7
2017-Dec-07 00:00N 35°26' E 139°42'2 4.3
2017-Dec-06 23:30N 35°27' E 139°39'0 0.0
2017-Dec-06 23:01N 35°27' E 139°39'1 1.7
2017-Dec-06 22:31N 35°27' E 139°40'1 1.7
2017-Dec-06 22:01N 35°27' E 139°41'0 0.4
2017-Dec-06 21:31N 35°27' E 139°41'2 3.6
2017-Dec-06 21:01N 35°27' E 139°39'  
2017-Dec-04 08:00N 35°27' E 139°39'0 0.0
2017-Dec-04 07:30N 35°27' E 139°39'0 0.0
2017-Dec-04 07:00N 35°27' E 139°39'0 0.0
2017-Dec-04 06:30N 35°27' E 139°39'0 0.0
2017-Dec-04 06:00N 35°27' E 139°39'0 0.0
2017-Dec-04 05:30N 35°27' E 139°39'0 0.0
2017-Dec-04 05:00N 35°27' E 139°39'0 0.0
2017-Dec-04 04:31N 35°27' E 139°39'0 0.0
2017-Dec-04 04:00N 35°27' E 139°39'0 0.0
2017-Dec-04 03:31N 35°27' E 139°39'0 0.0
2017-Dec-04 03:00N 35°27' E 139°39'0 0.0
2017-Dec-04 02:30N 35°27' E 139°39'0 0.0
2017-Dec-04 02:00N 35°27' E 139°39'0 0.9
2017-Dec-04 01:31N 35°27' E 139°39'1 2.2
2017-Dec-04 01:00N 35°27' E 139°40'3 6.4
2017-Dec-04 00:31N 35°25' E 139°43'2 3.9
2017-Dec-04 00:00N 35°27' E 139°42'2 3.6
2017-Dec-03 23:31N 35°27' E 139°39'0 0.0
2017-Dec-03 23:01N 35°27' E 139°39'0 0.0
2017-Dec-03 22:31N 35°27' E 139°39'0 0.0
2017-Dec-03 22:00N 35°27' E 139°39'0 0.0
2017-Dec-03 21:31N 35°27' E 139°39'0 0.0
2017-Dec-03 21:00N 35°27' E 139°39'0 0.0
2017-Dec-03 20:31N 35°27' E 139°39'0 0.0
2017-Dec-03 20:00N 35°27' E 139°39'0 0.0
2017-Dec-03 19:31N 35°27' E 139°39'0 0.0
2017-Dec-03 19:00N 35°27' E 139°39'0 0.0
2017-Dec-03 18:30N 35°27' E 139°39'0 0.0
2017-Dec-03 18:00N 35°27' E 139°39'0 0.0
2017-Dec-03 17:31N 35°27' E 139°39'0 0.0
2017-Dec-03 17:00N 35°27' E 139°39'0 0.0
2017-Dec-03 16:31N 35°27' E 139°39'0 0.0
2017-Dec-03 16:01N 35°27' E 139°39'0 0.0
2017-Dec-03 15:30N 35°27' E 139°39'0 0.0
2017-Dec-03 15:00N 35°27' E 139°39'0 0.0
2017-Dec-03 14:30N 35°27' E 139°39'0 0.0
2017-Dec-03 14:01N 35°27' E 139°39'0 0.0
2017-Dec-03 13:31N 35°27' E 139°39'0 0.0
2017-Dec-03 13:00N 35°27' E 139°39'0 0.0
2017-Dec-03 12:30N 35°27' E 139°39'0 0.0
2017-Dec-03 12:01N 35°27' E 139°39'0 0.0
2017-Dec-03 11:30N 35°27' E 139°39'0 0.0
2017-Dec-03 11:01N 35°27' E 139°39'0 0.0
2017-Dec-03 10:31N 35°27' E 139°39'0 0.0
2017-Dec-03 10:00N 35°27' E 139°39'0 0.0
2017-Dec-03 09:31N 35°27' E 139°39'0 0.0
2017-Dec-03 09:00N 35°27' E 139°39'0 0.0
2017-Dec-03 08:30N 35°27' E 139°39'0 0.0
2017-Dec-03 08:00N 35°27' E 139°39'0 0.0
2017-Dec-03 07:30N 35°27' E 139°39'0 0.0
2017-Dec-03 07:00N 35°27' E 139°39'0 0.0
2017-Dec-03 06:30N 35°27' E 139°39'0 0.0
2017-Dec-03 06:01N 35°27' E 139°39'0 0.0
2017-Dec-03 05:30N 35°27' E 139°39'0 0.0
2017-Dec-03 05:01N 35°27' E 139°39'0 0.0
2017-Dec-03 04:31N 35°27' E 139°39'0 0.0
2017-Dec-03 04:00N 35°27' E 139°39'0 0.0
2017-Dec-03 03:31N 35°27' E 139°39'0 0.0
2017-Dec-03 03:01N 35°27' E 139°39'0 0.0
2017-Dec-03 02:30N 35°27' E 139°39'0 0.0
2017-Dec-03 02:01N 35°27' E 139°39'0 0.0
2017-Dec-03 01:30N 35°27' E 139°39'0 0.0
2017-Dec-03 01:00N 35°27' E 139°39'0 0.0
2017-Dec-03 00:30N 35°27' E 139°39'0 0.0
2017-Dec-03 00:01N 35°27' E 139°39'0 0.0
2017-Dec-02 23:30N 35°27' E 139°39'0 0.2
2017-Dec-02 23:01N 35°27' E 139°39'2 3.2
2017-Dec-02 22:30N 35°27' E 139°41'1 1.8
2017-Dec-02 22:01N 35°26' E 139°42'2 3.3
2017-Dec-02 21:30N 35°26' E 139°44'0 0.9
2017-Dec-02 21:01N 35°26' E 139°44'2 4.0
2017-Dec-02 20:31N 35°27' E 139°42'0 0.0
2017-Dec-02 20:00N 35°27' E 139°42'0 0.0
2017-Dec-02 19:30N 35°27' E 139°42'0 0.0
2017-Dec-02 19:00N 35°27' E 139°42'0 0.0
2017-Dec-02 18:30N 35°27' E 139°42'0 0.0
2017-Dec-02 18:01N 35°27' E 139°42'0 0.0
2017-Dec-02 17:30N 35°27' E 139°42'0 0.0
2017-Dec-02 17:00N 35°27' E 139°42'0 0.0
2017-Dec-02 16:30N 35°27' E 139°42'0 0.0
2017-Dec-02 16:01N 35°27' E 139°42'0 0.0
2017-Dec-02 15:30N 35°27' E 139°42'1 2.6
2017-Dec-02 15:00N 35°27' E 139°41'1 2.6
2017-Dec-02 14:31N 35°26' E 139°42'0 0.8
2017-Dec-02 14:00N 35°27' E 139°42'0 0.1
2017-Dec-02 13:31N 35°27' E 139°42'0 0.0
2017-Dec-02 13:00N 35°27' E 139°42'0 0.0
2017-Dec-02 12:31N 35°27' E 139°42'0 0.0
2017-Dec-02 12:00N 35°27' E 139°42'0 0.0
2017-Dec-02 11:30N 35°27' E 139°42'1 2.2
2017-Dec-02 11:01N 35°27' E 139°41'3 6.1
2017-Dec-02 10:31N 35°28' E 139°44'0 0.5
2017-Dec-02 10:00N 35°28' E 139°44'2 4.4
2017-Dec-02 09:31N 35°27' E 139°42'2 4.3
2017-Dec-02 09:00N 35°27' E 139°39'0 0.0
2017-Dec-02 08:30N 35°27' E 139°39'0 0.0
2017-Dec-02 08:00N 35°27' E 139°39'0 0.0
2017-Dec-02 07:30N 35°27' E 139°39'0 0.0
2017-Dec-02 07:00N 35°27' E 139°39'0 0.1
2017-Dec-02 06:31N 35°27' E 139°39'1 2.6
2017-Dec-02 06:01N 35°27' E 139°41'0 0.7
2017-Dec-02 05:31N 35°26' E 139°41'1 2.3
2017-Dec-02 05:00N 35°27' E 139°40'0 0.0
2017-Dec-02 04:30N 35°27' E 139°40'0 0.0
2017-Dec-02 04:00N 35°27' E 139°40'0 0.0
2017-Dec-02 03:30N 35°27' E 139°40'0 0.0
2017-Dec-02 03:00N 35°27' E 139°40'0 0.0
2017-Dec-02 02:30N 35°27' E 139°40'0 0.0
2017-Dec-02 02:00N 35°27' E 139°40'0 0.0
2017-Dec-02 01:31N 35°27' E 139°40'0 0.0
2017-Dec-02 01:00N 35°27' E 139°40'0 0.0
2017-Dec-02 00:30N 35°27' E 139°40'0 0.0
2017-Dec-02 00:01N 35°27' E 139°40'0 0.0
2017-Dec-01 23:30N 35°27' E 139°40'0 0.0
2017-Dec-01 23:00N 35°27' E 139°40'0 0.0
2017-Dec-01 22:30N 35°27' E 139°40'0 0.0
2017-Dec-01 22:01N 35°27' E 139°40'0 0.0
2017-Dec-01 21:30N 35°27' E 139°40'0 0.0
2017-Dec-01 21:00N 35°27' E 139°40'0 0.0
2017-Dec-01 20:30N 35°27' E 139°40'0 0.0
2017-Dec-01 20:00N 35°27' E 139°40'0 0.0
2017-Dec-01 19:30N 35°27' E 139°40'0 0.0
2017-Dec-01 19:00N 35°27' E 139°40'0 0.0
2017-Dec-01 18:30N 35°27' E 139°40'0 0.0
2017-Dec-01 18:00N 35°27' E 139°40'0 0.0
2017-Dec-01 17:31N 35°27' E 139°40'0 0.0
2017-Dec-01 17:00N 35°27' E 139°40'0 0.0
2017-Dec-01 16:30N 35°27' E 139°40'0 0.0
2017-Dec-01 16:01N 35°27' E 139°40'0 0.0
2017-Dec-01 15:30N 35°27' E 139°40'0 0.0
2017-Dec-01 15:00N 35°27' E 139°40'0 0.0
2017-Dec-01 14:31N 35°27' E 139°40'0 0.0
2017-Dec-01 14:00N 35°27' E 139°40'0 0.0
2017-Dec-01 13:31N 35°27' E 139°40'0 0.0
2017-Dec-01 13:01N 35°27' E 139°40'0 0.0
2017-Dec-01 12:30N 35°27' E 139°40'0 0.0
2017-Dec-01 12:01N 35°27' E 139°40'0 0.0
2017-Dec-01 11:31N 35°27' E 139°40'0 0.0
2017-Dec-01 11:00N 35°27' E 139°40'0 0.0
2017-Dec-01 10:30N 35°27' E 139°40'0 0.0
2017-Dec-01 10:00N 35°27' E 139°40'0 0.0
2017-Dec-01 09:30N 35°27' E 139°40'0 0.0
2017-Dec-01 09:00N 35°27' E 139°40'0 0.0
2017-Dec-01 08:31N 35°27' E 139°40'0 0.0
2017-Dec-01 08:00N 35°27' E 139°40'0 0.0
2017-Dec-01 07:31N 35°27' E 139°40'0 0.0
2017-Dec-01 07:01N 35°27' E 139°40'0 0.0
2017-Dec-01 06:30N 35°27' E 139°40'0 0.0
2017-Dec-01 06:00N 35°27' E 139°40'0 0.0
2017-Dec-01 05:30N 35°27' E 139°40'0 0.0
2017-Dec-01 05:00N 35°27' E 139°40'0 0.0
2017-Dec-01 04:30N 35°27' E 139°40'0 0.0
2017-Dec-01 04:00N 35°27' E 139°40'0 0.0
2017-Dec-01 03:30N 35°27' E 139°40'1 2.8
2017-Dec-01 03:00N 35°27' E 139°41'3 5.6
2017-Dec-01 02:30N 35°28' E 139°44'0 0.0
2017-Dec-01 02:00N 35°28' E 139°44'0 0.1
2017-Dec-01 01:31N 35°28' E 139°44'0 1.0
2017-Dec-01 01:00N 35°28' E 139°44'2 3.3
2017-Dec-01 00:30N 35°26' E 139°45'2 3.8
2017-Dec-01 00:01N 35°28' E 139°46'  
Track history (hours):
 
Tides and Currents Weather Stations Pressure Air Temp Water Temp Dewpoint Dewpoint Depression Visibility Wind Speed Wind Dir Waves Ship Positions

Tachibana

Last reported at 2017-Dec-10 23:41 UTC. Time now 2017-Dec-12 10:28 UTC.
Position N 35°27' E 139°39'.

Length 36 m; draft 3.9 m.

Type: Tug. MMSI: 431000123.

Date/timePositionNaut miles runAvg speedWind from/ knotsBaromVisibWave heightAir tempDewpointWater temp
2017-Dec-10 23:41N 35°27' E 139°39'1 4.5
2017-Dec-10 23:31N 35°27' E 139°40'1 2.3
2017-Dec-10 23:00N 35°26' E 139°41'1 2.1
2017-Dec-10 22:30N 35°26' E 139°42'1 2.4
2017-Dec-10 22:00N 35°26' E 139°43'3 6.8
2017-Dec-10 21:30N 35°27' E 139°39'0 0.1
2017-Dec-10 21:00N 35°27' E 139°39'0 0.0
2017-Dec-10 20:30N 35°27' E 139°39'0 0.0
2017-Dec-10 20:00N 35°27' E 139°39'0 0.0
2017-Dec-10 19:30N 35°27' E 139°39'0 0.0
2017-Dec-10 19:00N 35°27' E 139°39'1 2.6
2017-Dec-10 18:30N 35°27' E 139°41'0 0.6
2017-Dec-10 18:00N 35°26' E 139°41'0 0.1
2017-Dec-10 17:30N 35°26' E 139°41'1 2.0
2017-Dec-10 17:00N 35°27' E 139°42'0 0.0
2017-Dec-10 16:30N 35°27' E 139°42'0 0.0
2017-Dec-10 16:00N 35°27' E 139°42'0 0.0
2017-Dec-10 15:31N 35°27' E 139°42'1 1.1
2017-Dec-10 15:00N 35°27' E 139°41'0 0.9
2017-Dec-10 14:30N 35°27' E 139°41'1 2.7
2017-Dec-10 14:00N 35°27' E 139°39'0 0.0
2017-Dec-10 13:30N 35°27' E 139°39'0 0.0
2017-Dec-10 13:00N 35°27' E 139°39'0 0.0
2017-Dec-10 12:31N 35°27' E 139°39'0 0.0
2017-Dec-10 12:00N 35°27' E 139°39'0 0.0
2017-Dec-10 11:31N 35°27' E 139°39'0 0.0
2017-Dec-10 11:00N 35°27' E 139°39'0 0.0
2017-Dec-10 10:31N 35°27' E 139°39'0 0.9
2017-Dec-10 10:01N 35°28' E 139°40'2 3.6
2017-Dec-10 09:31N 35°28' E 139°42'2 3.3
2017-Dec-10 09:00N 35°27' E 139°44'4 7.8
2017-Dec-10 08:30N 35°30' E 139°47'2 3.8
2017-Dec-10 08:01N 35°29' E 139°45'0 0.3
2017-Dec-10 07:30N 35°29' E 139°45'4 8.2
2017-Dec-10 07:01N 35°28' E 139°40'0 0.0
2017-Dec-10 06:30N 35°28' E 139°40'0 0.0
2017-Dec-10 06:01N 35°28' E 139°40'0 0.0
2017-Dec-10 05:31N 35°28' E 139°40'0 0.0
2017-Dec-10 05:00N 35°28' E 139°40'1 2.2
2017-Dec-10 04:31N 35°27' E 139°41'2 3.0
2017-Dec-10 04:01N 35°28' E 139°40'0 0.0
2017-Dec-10 03:31N 35°28' E 139°40'1 2.7
2017-Dec-10 03:01N 35°27' E 139°40'0 0.0
2017-Dec-10 02:31N 35°27' E 139°40'0 0.0
2017-Dec-10 02:01N 35°27' E 139°40'0 0.0
2017-Dec-10 01:31N 35°27' E 139°40'0 0.0
2017-Dec-10 01:01N 35°27' E 139°40'0 0.0
2017-Dec-10 00:31N 35°27' E 139°40'0 0.0
2017-Dec-10 00:01N 35°27' E 139°40'0 0.0
2017-Dec-09 23:31N 35°27' E 139°40'0 0.0
2017-Dec-09 23:01N 35°27' E 139°40'0 0.0
2017-Dec-09 22:30N 35°27' E 139°40'0 0.0
2017-Dec-09 22:01N 35°27' E 139°40'0 0.0
2017-Dec-09 21:31N 35°27' E 139°40'0 0.0
2017-Dec-09 21:01N 35°27' E 139°40'0 0.0
2017-Dec-09 20:31N 35°27' E 139°40'0 0.0
2017-Dec-09 07:14N 35°27' E 139°40'0 0.0
2017-Dec-09 07:00N 35°27' E 139°40'0 0.0
2017-Dec-09 06:30N 35°27' E 139°40'0 0.0
2017-Dec-09 06:00N 35°27' E 139°40'0 0.0
2017-Dec-09 05:30N 35°27' E 139°40'0 0.0
2017-Dec-09 05:00N 35°27' E 139°40'0 0.0
2017-Dec-09 04:30N 35°27' E 139°40'0 0.0
2017-Dec-09 04:00N 35°27' E 139°40'0 0.0
2017-Dec-09 03:30N 35°27' E 139°40'0 0.0
2017-Dec-09 03:00N 35°27' E 139°40'0 0.0
2017-Dec-09 02:30N 35°27' E 139°40'0 0.0
2017-Dec-09 02:00N 35°27' E 139°40'0 0.0
2017-Dec-09 01:30N 35°27' E 139°40'0 0.7
2017-Dec-09 01:01N 35°27' E 139°40'3 5.3
2017-Dec-09 00:30N 35°28' E 139°43'1 2.6
2017-Dec-09 00:00N 35°27' E 139°42'2 3.9
2017-Dec-08 23:30N 35°27' E 139°39'0 0.0
2017-Dec-08 23:00N 35°27' E 139°39'0 0.1
2017-Dec-08 22:31N 35°27' E 139°39'1 2.6
2017-Dec-08 22:00N 35°27' E 139°41'1 2.9
2017-Dec-08 21:30N 35°26' E 139°42'1 1.4
2017-Dec-08 21:01N 35°26' E 139°43'3 5.3
2017-Dec-08 20:31N 35°27' E 139°40'0 0.0
2017-Dec-08 20:00N 35°27' E 139°40'0 0.0
2017-Dec-08 19:30N 35°27' E 139°40'0 0.0
2017-Dec-08 19:00N 35°27' E 139°40'0 0.0
2017-Dec-08 18:31N 35°27' E 139°40'0 0.0
2017-Dec-08 18:01N 35°27' E 139°40'0 0.0
2017-Dec-08 17:30N 35°27' E 139°40'0 0.0
2017-Dec-08 17:00N 35°27' E 139°40'0 0.0
2017-Dec-08 16:30N 35°27' E 139°40'0 0.0
2017-Dec-08 16:00N 35°27' E 139°40'0 0.0
2017-Dec-08 15:31N 35°27' E 139°40'0 0.0
2017-Dec-08 15:01N 35°27' E 139°40'0 0.0
2017-Dec-08 14:30N 35°27' E 139°40'0 0.0
2017-Dec-08 14:00N 35°27' E 139°40'0 0.0
2017-Dec-08 13:30N 35°27' E 139°40'0 0.0
2017-Dec-08 13:00N 35°27' E 139°40'0 0.0
2017-Dec-08 12:31N 35°27' E 139°40'0 0.0
2017-Dec-08 12:00N 35°27' E 139°40'0 0.0
2017-Dec-08 11:30N 35°27' E 139°40'0 0.0
2017-Dec-08 11:00N 35°27' E 139°40'0 0.0
2017-Dec-08 10:31N 35°27' E 139°40'0 0.0
2017-Dec-08 10:00N 35°27' E 139°40'0 0.0
2017-Dec-08 09:30N 35°27' E 139°40'0 0.0
2017-Dec-08 09:00N 35°27' E 139°40'0 0.0
2017-Dec-08 08:30N 35°27' E 139°40'0 0.0
2017-Dec-08 08:01N 35°27' E 139°40'0 0.3
2017-Dec-08 07:31N 35°27' E 139°40'4 7.9
2017-Dec-08 07:00N 35°23' E 139°41'1 1.9
2017-Dec-08 06:30N 35°24' E 139°41'3 5.8
2017-Dec-08 06:01N 35°27' E 139°42'0 0.0
2017-Dec-08 05:30N 35°27' E 139°42'0 0.0
2017-Dec-08 05:00N 35°27' E 139°42'0 0.0
2017-Dec-08 04:31N 35°27' E 139°42'0 0.0
2017-Dec-08 04:00N 35°27' E 139°42'0 0.0
2017-Dec-08 03:31N 35°27' E 139°42'0 0.0
2017-Dec-08 03:01N 35°27' E 139°42'1 1.4
2017-Dec-08 02:30N 35°27' E 139°43'1 1.0
2017-Dec-08 02:00N 35°28' E 139°43'0 0.0
2017-Dec-08 01:30N 35°28' E 139°43'0 0.5
2017-Dec-08 01:01N 35°27' E 139°43'2 4.4
2017-Dec-08 00:30N 35°26' E 139°45'2 3.9
2017-Dec-08 00:00N 35°28' E 139°45'1 1.1
2017-Dec-07 23:31N 35°28' E 139°45'0 0.0
2017-Dec-07 23:00N 35°28' E 139°45'3 5.1
2017-Dec-07 22:30N 35°30' E 139°47'1 2.7
2017-Dec-07 22:01N 35°31' E 139°46'5 9.2
2017-Dec-07 21:30N 35°28' E 139°41'2 3.9
2017-Dec-07 21:00N 35°27' E 139°40'0 0.0
2017-Dec-07 20:31N 35°27' E 139°40'0 0.0
2017-Dec-07 07:08N 35°27' E 139°40'0 0.0
2017-Dec-07 07:00N 35°27' E 139°40'0 0.0
2017-Dec-07 06:30N 35°27' E 139°40'0 0.0
2017-Dec-07 06:01N 35°27' E 139°40'0 0.0
2017-Dec-07 05:30N 35°27' E 139°40'0 0.0
2017-Dec-07 05:00N 35°27' E 139°40'0 0.0
2017-Dec-07 04:31N 35°27' E 139°40'0 0.0
2017-Dec-07 04:01N 35°27' E 139°40'0 0.0
2017-Dec-07 03:30N 35°27' E 139°40'2 3.5
2017-Dec-07 03:01N 35°26' E 139°42'2 4.1
2017-Dec-07 02:31N 35°28' E 139°40'1 2.5
2017-Dec-07 02:01N 35°27' E 139°39'1 2.6
2017-Dec-07 01:31N 35°27' E 139°41'0 0.2
2017-Dec-07 01:01N 35°27' E 139°41'2 4.3
2017-Dec-07 00:31N 35°25' E 139°43'1 2.7
2017-Dec-07 00:00N 35°26' E 139°42'2 4.3
2017-Dec-06 23:30N 35°27' E 139°39'0 0.0
2017-Dec-06 23:01N 35°27' E 139°39'1 1.7
2017-Dec-06 22:31N 35°27' E 139°40'1 1.7
2017-Dec-06 22:01N 35°27' E 139°41'0 0.4
2017-Dec-06 21:31N 35°27' E 139°41'2 3.6
2017-Dec-06 21:01N 35°27' E 139°39'  
2017-Dec-04 08:00N 35°27' E 139°39'0 0.0
2017-Dec-04 07:30N 35°27' E 139°39'0 0.0
2017-Dec-04 07:00N 35°27' E 139°39'0 0.0
2017-Dec-04 06:30N 35°27' E 139°39'0 0.0
2017-Dec-04 06:00N 35°27' E 139°39'0 0.0
2017-Dec-04 05:30N 35°27' E 139°39'0 0.0
2017-Dec-04 05:00N 35°27' E 139°39'0 0.0
2017-Dec-04 04:31N 35°27' E 139°39'0 0.0
2017-Dec-04 04:00N 35°27' E 139°39'0 0.0
2017-Dec-04 03:31N 35°27' E 139°39'0 0.0
2017-Dec-04 03:00N 35°27' E 139°39'0 0.0
2017-Dec-04 02:30N 35°27' E 139°39'0 0.0
2017-Dec-04 02:00N 35°27' E 139°39'0 0.9
2017-Dec-04 01:31N 35°27' E 139°39'1 2.2
2017-Dec-04 01:00N 35°27' E 139°40'3 6.4
2017-Dec-04 00:31N 35°25' E 139°43'2 3.9
2017-Dec-04 00:00N 35°27' E 139°42'2 3.6
2017-Dec-03 23:31N 35°27' E 139°39'0 0.0
2017-Dec-03 23:01N 35°27' E 139°39'0 0.0
2017-Dec-03 22:31N 35°27' E 139°39'0 0.0
2017-Dec-03 22:00N 35°27' E 139°39'0 0.0
2017-Dec-03 21:31N 35°27' E 139°39'0 0.0
2017-Dec-03 21:00N 35°27' E 139°39'0 0.0
2017-Dec-03 20:31N 35°27' E 139°39'0 0.0
2017-Dec-03 20:00N 35°27' E 139°39'0 0.0
2017-Dec-03 19:31N 35°27' E 139°39'0 0.0
2017-Dec-03 19:00N 35°27' E 139°39'0 0.0
2017-Dec-03 18:30N 35°27' E 139°39'0 0.0
2017-Dec-03 18:00N 35°27' E 139°39'0 0.0
2017-Dec-03 17:31N 35°27' E 139°39'0 0.0
2017-Dec-03 17:00N 35°27' E 139°39'0 0.0
2017-Dec-03 16:31N 35°27' E 139°39'0 0.0
2017-Dec-03 16:01N 35°27' E 139°39'0 0.0
2017-Dec-03 15:30N 35°27' E 139°39'0 0.0
2017-Dec-03 15:00N 35°27' E 139°39'0 0.0
2017-Dec-03 14:30N 35°27' E 139°39'0 0.0
2017-Dec-03 14:01N 35°27' E 139°39'0 0.0
2017-Dec-03 13:31N 35°27' E 139°39'0 0.0
2017-Dec-03 13:00N 35°27' E 139°39'0 0.0
2017-Dec-03 12:30N 35°27' E 139°39'0 0.0
2017-Dec-03 12:01N 35°27' E 139°39'0 0.0
2017-Dec-03 11:30N 35°27' E 139°39'0 0.0
2017-Dec-03 11:01N 35°27' E 139°39'0 0.0
2017-Dec-03 10:31N 35°27' E 139°39'0 0.0
2017-Dec-03 10:00N 35°27' E 139°39'0 0.0
2017-Dec-03 09:31N 35°27' E 139°39'0 0.0
2017-Dec-03 09:00N 35°27' E 139°39'0 0.0
2017-Dec-03 08:30N 35°27' E 139°39'0 0.0
2017-Dec-03 08:00N 35°27' E 139°39'0 0.0
2017-Dec-03 07:30N 35°27' E 139°39'0 0.0
2017-Dec-03 07:00N 35°27' E 139°39'0 0.0
2017-Dec-03 06:30N 35°27' E 139°39'0 0.0
2017-Dec-03 06:01N 35°27' E 139°39'0 0.0
2017-Dec-03 05:30N 35°27' E 139°39'0 0.0
2017-Dec-03 05:01N 35°27' E 139°39'0 0.0
2017-Dec-03 04:31N 35°27' E 139°39'0 0.0
2017-Dec-03 04:00N 35°27' E 139°39'0 0.0
2017-Dec-03 03:31N 35°27' E 139°39'0 0.0
2017-Dec-03 03:01N 35°27' E 139°39'0 0.0
2017-Dec-03 02:30N 35°27' E 139°39'0 0.0
2017-Dec-03 02:01N 35°27' E 139°39'0 0.0
2017-Dec-03 01:30N 35°27' E 139°39'0 0.0
2017-Dec-03 01:00N 35°27' E 139°39'0 0.0
2017-Dec-03 00:30N 35°27' E 139°39'0 0.0
2017-Dec-03 00:01N 35°27' E 139°39'0 0.0
2017-Dec-02 23:30N 35°27' E 139°39'0 0.2
2017-Dec-02 23:01N 35°27' E 139°39'2 3.2
2017-Dec-02 22:30N 35°27' E 139°41'1 1.8
2017-Dec-02 22:01N 35°26' E 139°42'2 3.3
2017-Dec-02 21:30N 35°26' E 139°44'0 0.9
2017-Dec-02 21:01N 35°26' E 139°44'2 4.0
2017-Dec-02 20:31N 35°27' E 139°42'0 0.0
2017-Dec-02 20:00N 35°27' E 139°42'0 0.0
2017-Dec-02 19:30N 35°27' E 139°42'0 0.0
2017-Dec-02 19:00N 35°27' E 139°42'0 0.0
2017-Dec-02 18:30N 35°27' E 139°42'0 0.0
2017-Dec-02 18:01N 35°27' E 139°42'0 0.0
2017-Dec-02 17:30N 35°27' E 139°42'0 0.0
2017-Dec-02 17:00N 35°27' E 139°42'0 0.0
2017-Dec-02 16:30N 35°27' E 139°42'0 0.0
2017-Dec-02 16:01N 35°27' E 139°42'0 0.0
2017-Dec-02 15:30N 35°27' E 139°42'1 2.6
2017-Dec-02 15:00N 35°27' E 139°41'1 2.6
2017-Dec-02 14:31N 35°26' E 139°42'0 0.8
2017-Dec-02 14:00N 35°27' E 139°42'0 0.1
2017-Dec-02 13:31N 35°27' E 139°42'0 0.0
2017-Dec-02 13:00N 35°27' E 139°42'0 0.0
2017-Dec-02 12:31N 35°27' E 139°42'0 0.0
2017-Dec-02 12:00N 35°27' E 139°42'0 0.0
2017-Dec-02 11:30N 35°27' E 139°42'1 2.2
2017-Dec-02 11:01N 35°27' E 139°41'3 6.1
2017-Dec-02 10:31N 35°28' E 139°44'0 0.5
2017-Dec-02 10:00N 35°28' E 139°44'2 4.4
2017-Dec-02 09:31N 35°27' E 139°42'2 4.3
2017-Dec-02 09:00N 35°27' E 139°39'0 0.0
2017-Dec-02 08:30N 35°27' E 139°39'0 0.0
2017-Dec-02 08:00N 35°27' E 139°39'0 0.0
2017-Dec-02 07:30N 35°27' E 139°39'0 0.0
2017-Dec-02 07:00N 35°27' E 139°39'0 0.1
2017-Dec-02 06:31N 35°27' E 139°39'1 2.6
2017-Dec-02 06:01N 35°27' E 139°41'0 0.7
2017-Dec-02 05:31N 35°26' E 139°41'1 2.3
2017-Dec-02 05:00N 35°27' E 139°40'0 0.0
2017-Dec-02 04:30N 35°27' E 139°40'0 0.0
2017-Dec-02 04:00N 35°27' E 139°40'0 0.0
2017-Dec-02 03:30N 35°27' E 139°40'0 0.0
2017-Dec-02 03:00N 35°27' E 139°40'0 0.0
2017-Dec-02 02:30N 35°27' E 139°40'0 0.0
2017-Dec-02 02:00N 35°27' E 139°40'0 0.0
2017-Dec-02 01:31N 35°27' E 139°40'0 0.0
2017-Dec-02 01:00N 35°27' E 139°40'0 0.0
2017-Dec-02 00:30N 35°27' E 139°40'0 0.0
2017-Dec-02 00:01N 35°27' E 139°40'0 0.0
2017-Dec-01 23:30N 35°27' E 139°40'0 0.0
2017-Dec-01 23:00N 35°27' E 139°40'0 0.0
2017-Dec-01 22:30N 35°27' E 139°40'0 0.0
2017-Dec-01 22:01N 35°27' E 139°40'0 0.0
2017-Dec-01 21:30N 35°27' E 139°40'0 0.0
2017-Dec-01 21:00N 35°27' E 139°40'0 0.0
2017-Dec-01 20:30N 35°27' E 139°40'0 0.0
2017-Dec-01 20:00N 35°27' E 139°40'0 0.0
2017-Dec-01 19:30N 35°27' E 139°40'0 0.0
2017-Dec-01 19:00N 35°27' E 139°40'0 0.0
2017-Dec-01 18:30N 35°27' E 139°40'0 0.0
2017-Dec-01 18:00N 35°27' E 139°40'0 0.0
2017-Dec-01 17:31N 35°27' E 139°40'0 0.0
2017-Dec-01 17:00N 35°27' E 139°40'0 0.0
2017-Dec-01 16:30N 35°27' E 139°40'0 0.0
2017-Dec-01 16:01N 35°27' E 139°40'0 0.0
2017-Dec-01 15:30N 35°27' E 139°40'0 0.0
2017-Dec-01 15:00N 35°27' E 139°40'0 0.0
2017-Dec-01 14:31N 35°27' E 139°40'0 0.0
2017-Dec-01 14:00N 35°27' E 139°40'0 0.0
2017-Dec-01 13:31N 35°27' E 139°40'0 0.0
2017-Dec-01 13:01N 35°27' E 139°40'0 0.0
2017-Dec-01 12:30N 35°27' E 139°40'0 0.0
2017-Dec-01 12:01N 35°27' E 139°40'0 0.0
2017-Dec-01 11:31N 35°27' E 139°40'0 0.0
2017-Dec-01 11:00N 35°27' E 139°40'0 0.0
2017-Dec-01 10:30N 35°27' E 139°40'0 0.0
2017-Dec-01 10:00N 35°27' E 139°40'0 0.0
2017-Dec-01 09:30N 35°27' E 139°40'0 0.0
2017-Dec-01 09:00N 35°27' E 139°40'0 0.0
2017-Dec-01 08:31N 35°27' E 139°40'0 0.0
2017-Dec-01 08:00N 35°27' E 139°40'0 0.0
2017-Dec-01 07:31N 35°27' E 139°40'0 0.0
2017-Dec-01 07:01N 35°27' E 139°40'0 0.0
2017-Dec-01 06:30N 35°27' E 139°40'0 0.0
2017-Dec-01 06:00N 35°27' E 139°40'0 0.0
2017-Dec-01 05:30N 35°27' E 139°40'0 0.0
2017-Dec-01 05:00N 35°27' E 139°40'0 0.0
2017-Dec-01 04:30N 35°27' E 139°40'0 0.0
2017-Dec-01 04:00N 35°27' E 139°40'0 0.0
2017-Dec-01 03:30N 35°27' E 139°40'1 2.8
2017-Dec-01 03:00N 35°27' E 139°41'3 5.6
2017-Dec-01 02:30N 35°28' E 139°44'0 0.0
2017-Dec-01 02:00N 35°28' E 139°44'0 0.1
2017-Dec-01 01:31N 35°28' E 139°44'0 1.0
2017-Dec-01 01:00N 35°28' E 139°44'2 3.3
2017-Dec-01 00:30N 35°26' E 139°45'2 3.8
2017-Dec-01 00:01N 35°28' E 139°46'  

Dump ship's entire track history